Time;durP1;ratioP1;P1;durP2;ratioP2;P2;SDS_P1;SDS_P2;PMS_P1;PMS_P2;Temp;Humidity;BMP_temperature;BMP_pressure;BME280_temperature;BME280_humidity;BME280_pressure;Samples;Min_cycle;Max_cycle;Signal;HPM_P1;HPM_P2
2023/09/24 00:00:57;;;;;;;135.37;130.20;;;;;;;11.28;100.00;102015.34;4976794;28;21063;-43
2023/09/24 00:03:26;;;;;;;137.30;132.53;;;;;;;11.20;100.00;102018.03;4987279;28;20494;-45
2023/09/24 00:05:54;;;;;;;141.17;136.37;;;;;;;11.15;100.00;102020.38;4976223;28;20462;-42
2023/09/24 00:08:22;;;;;;;147.43;142.67;;;;;;;11.08;100.00;102024.72;4979340;28;20427;-43
2023/09/24 00:10:52;;;;;;;142.83;138.00;;;;;;;11.00;100.00;102028.22;4983766;28;20438;-42
2023/09/24 00:13:21;;;;;;;151.80;147.10;;;;;;;10.94;100.00;102034.25;4985699;28;20472;-43
2023/09/24 00:15:50;;;;;;;143.80;139.10;;;;;;;10.87;100.00;102033.22;4991307;28;20470;-43
2023/09/24 00:18:18;;;;;;;142.30;137.73;;;;;;;10.81;100.00;102035.75;4979482;28;20524;-42
2023/09/24 00:20:48;;;;;;;143.47;139.00;;;;;;;10.73;100.00;102035.72;4992100;28;20434;-40
2023/09/24 00:23:16;;;;;;;134.90;130.27;;;;;;;10.67;100.00;102044.41;4981904;28;20454;-43
2023/09/24 00:25:44;;;;;;;135.33;130.87;;;;;;;10.60;100.00;102040.75;4973444;28;20462;-41
2023/09/24 00:28:12;;;;;;;133.57;128.97;;;;;;;10.55;100.00;102042.06;4988565;28;20435;-44
2023/09/24 00:30:42;;;;;;;132.77;128.57;;;;;;;10.51;100.00;102051.38;4973471;28;20934;-42
2023/09/24 00:33:10;;;;;;;129.20;124.43;;;;;;;10.51;100.00;102050.56;4977435;28;20466;-46
2023/09/24 00:35:38;;;;;;;126.10;122.10;;;;;;;10.50;100.00;102057.72;4976230;28;20526;-38
2023/09/24 00:38:08;;;;;;;129.87;125.53;;;;;;;10.51;100.00;102055.91;4973851;28;20435;-41
2023/09/24 00:40:36;;;;;;;131.83;127.57;;;;;;;10.50;100.00;102060.41;4973904;28;20463;-40
2023/09/24 00:43:05;;;;;;;134.83;130.37;;;;;;;10.54;100.00;102063.59;4973519;28;20465;-45
2023/09/24 00:45:33;;;;;;;127.53;123.33;;;;;;;10.60;100.00;102068.25;4980449;28;20488;-41
2023/09/24 00:48:02;;;;;;;130.50;125.57;;;;;;;10.65;100.00;102062.41;4973566;28;20439;-43
2023/09/24 00:50:33;;;;;;;133.43;129.13;;;;;;;10.70;100.00;102076.09;4973123;28;21151;-43
2023/09/24 00:53:02;;;;;;;132.10;127.80;;;;;;;10.76;100.00;102070.94;4973500;28;20455;-46
2023/09/24 00:55:32;;;;;;;130.63;126.23;;;;;;;10.81;100.00;102078.44;4972934;28;21016;-41
2023/09/24 00:58:00;;;;;;;133.10;128.83;;;;;;;10.86;100.00;102081.44;4973525;28;20811;-42
2023/09/24 01:00:34;;;;;;;129.30;125.03;;;;;;;10.91;100.00;102079.94;4972930;28;20439;-41
2023/09/24 01:03:02;;;;;;;136.63;131.77;;;;;;;10.96;100.00;102074.13;4981007;28;20548;-43
2023/09/24 01:05:30;;;;;;;137.27;132.80;;;;;;;11.02;100.00;102079.59;4972900;28;20462;-42
2023/09/24 01:07:58;;;;;;;132.37;127.20;;;;;;;11.06;100.00;102080.94;4981262;28;20534;-44
2023/09/24 01:10:25;;;;;;;133.50;128.77;;;;;;;11.10;100.00;102084.13;4980931;28;20434;-42
2023/09/24 01:13:00;;;;;;;132.10;127.70;;;;;;;11.14;100.00;102079.28;4972882;28;20566;-42
2023/09/24 01:15:28;;;;;;;134.00;129.63;;;;;;;11.16;100.00;102085.28;4972625;28;20458;-43
2023/09/24 01:17:57;;;;;;;131.90;127.17;;;;;;;11.18;100.00;102092.13;4983172;28;20446;-43
2023/09/24 01:20:30;;;;;;;132.50;128.40;;;;;;;11.20;100.00;102091.97;4986279;28;20477;-46
2023/09/24 01:23:02;;;;;;;138.87;134.47;;;;;;;11.22;100.00;102097.97;4983170;28;20462;-43
2023/09/24 01:25:35;;;;;;;135.80;131.13;;;;;;;11.23;100.00;102103.13;4991793;28;20461;-42
2023/09/24 01:28:04;;;;;;;134.07;129.87;;;;;;;11.26;100.00;102107.31;4980397;28;20431;-43
2023/09/24 01:30:32;;;;;;;140.13;135.07;;;;;;;11.25;100.00;102103.81;4972636;28;20443;-43
2023/09/24 01:33:00;;;;;;;138.77;134.27;;;;;;;11.27;100.00;102111.66;4972594;28;20815;-44
2023/09/24 01:35:28;;;;;;;142.43;138.00;;;;;;;11.28;100.00;102111.50;4972329;28;20462;-40
2023/09/24 01:37:57;;;;;;;133.17;128.53;;;;;;;11.31;100.00;102113.81;4972509;28;20467;-43
2023/09/24 01:40:27;;;;;;;135.27;130.43;;;;;;;11.33;100.00;102116.31;4972400;28;20945;-42
2023/09/24 01:42:57;;;;;;;138.77;133.50;;;;;;;11.36;100.00;102121.31;4972750;28;20473;-41
2023/09/24 01:45:26;;;;;;;137.00;131.90;;;;;;;11.37;100.00;102113.16;4972192;28;20485;-41
2023/09/24 01:47:54;;;;;;;140.77;136.10;;;;;;;11.39;100.00;102107.63;4972547;28;20489;-42
2023/09/24 01:50:26;;;;;;;135.27;130.70;;;;;;;11.37;100.00;102115.81;4972335;28;20460;-41
2023/09/24 01:52:57;;;;;;;139.33;134.73;;;;;;;11.36;100.00;102114.16;4990397;28;20470;-41
2023/09/24 01:55:27;;;;;;;135.03;130.27;;;;;;;11.36;100.00;102113.31;4991368;28;20472;-39
2023/09/24 01:57:55;;;;;;;135.80;131.30;;;;;;;11.35;100.00;102122.34;4990401;28;20434;-42
2023/09/24 02:00:25;;;;;;;137.97;133.17;;;;;;;11.33;100.00;102119.81;4972288;28;20435;-43
2023/09/24 02:02:56;;;;;;;144.23;139.17;;;;;;;11.31;100.00;102115.66;4980341;28;20461;-41
2023/09/24 02:05:24;;;;;;;138.07;133.57;;;;;;;11.27;100.00;102125.84;4980088;28;20483;-42
2023/09/24 02:07:53;;;;;;;145.87;140.63;;;;;;;11.23;100.00;102127.16;4972396;28;20431;-40
2023/09/24 02:10:21;;;;;;;139.33;134.83;;;;;;;11.18;100.00;102126.00;4972225;28;20438;-41
2023/09/24 02:12:51;;;;;;;136.53;132.00;;;;;;;11.11;100.00;102132.00;4980303;28;20455;-43
2023/09/24 02:15:19;;;;;;;139.53;134.73;;;;;;;11.03;100.00;102136.50;4972115;28;20887;-41
2023/09/24 02:17:48;;;;;;;147.60;142.70;;;;;;;10.95;100.00;102142.69;4980112;28;20497;-45
2023/09/24 02:20:25;;;;;;;140.90;136.23;;;;;;;10.88;100.00;102144.34;4972197;28;20462;-43
2023/09/24 02:22:56;;;;;;;145.00;140.30;;;;;;;10.78;100.00;102138.28;4980204;28;20462;-44
2023/09/24 02:25:25;;;;;;;139.70;135.30;;;;;;;10.69;100.00;102135.81;4985340;28;20465;-41
2023/09/24 02:27:55;;;;;;;148.87;143.97;;;;;;;10.63;100.00;102136.44;4975986;28;20522;-43
2023/09/24 02:30:25;;;;;;;147.40;142.50;;;;;;;10.56;100.00;102144.25;4978092;28;20506;-41
2023/09/24 02:32:58;;;;;;;147.40;142.80;;;;;;;10.47;100.00;102140.75;4972165;28;20497;-44
2023/09/24 02:35:26;;;;;;;148.13;143.37;;;;;;;10.43;100.00;102141.22;4979771;28;20479;-43
2023/09/24 02:37:54;;;;;;;140.10;135.70;;;;;;;10.37;100.00;102149.84;4972019;28;20455;-42
2023/09/24 02:40:26;;;;;;;142.63;138.33;;;;;;;10.32;100.00;102160.19;4971827;28;20463;-40
2023/09/24 02:42:56;;;;;;;140.30;135.90;;;;;;;10.28;100.00;102143.66;4981330;28;20463;-47
2023/09/24 02:45:26;;;;;;;138.07;133.87;;;;;;;10.25;100.00;102154.66;4977070;28;20469;-47
2023/09/24 02:47:54;;;;;;;140.93;136.50;;;;;;;10.21;100.00;102147.97;4972162;28;20434;-43
2023/09/24 02:50:24;;;;;;;138.83;134.27;;;;;;;10.20;100.00;102151.63;4971705;28;20427;-41
2023/09/24 02:52:55;;;;;;;138.57;134.20;;;;;;;10.18;100.00;102148.31;4988675;28;20874;-46
2023/09/24 02:55:25;;;;;;;137.03;132.73;;;;;;;10.15;100.00;102151.28;4984917;28;20470;-39
2023/09/24 02:57:55;;;;;;;139.73;135.43;;;;;;;10.11;100.00;102157.03;4982361;28;20491;-42
2023/09/24 03:00:33;;;;;;;138.93;134.53;;;;;;;10.06;100.00;102160.19;4983376;28;20430;-41
2023/09/24 03:03:01;;;;;;;137.80;133.33;;;;;;;10.02;100.00;102161.50;4991195;28;20984;-40
2023/09/24 03:05:29;;;;;;;144.53;139.70;;;;;;;9.96;100.00;102162.13;4974166;28;20462;-46
2023/09/24 03:07:59;;;;;;;138.90;134.50;;;;;;;9.91;100.00;102167.09;4975604;28;20435;-47
2023/09/24 03:10:30;;;;;;;147.43;142.47;;;;;;;9.84;100.00;102172.22;4975150;28;20439;-42
2023/09/24 03:13:00;;;;;;;150.80;146.00;;;;;;;9.80;100.00;102172.69;4975390;28;20490;-42
2023/09/24 03:15:28;;;;;;;146.50;141.63;;;;;;;9.76;100.00;102174.84;4979517;28;20544;-42
2023/09/24 03:17:56;;;;;;;149.07;144.23;;;;;;;9.72;100.00;102183.28;4970199;28;20533;-47
2023/09/24 03:20:24;;;;;;;145.93;141.43;;;;;;;9.67;100.00;102175.78;4986235;28;20438;-40
2023/09/24 03:22:54;;;;;;;148.03;143.43;;;;;;;9.64;100.00;102180.56;4977646;28;20462;-45
2023/09/24 03:25:23;;;;;;;148.70;143.97;;;;;;;9.60;100.00;102189.84;4973692;28;20455;-42
2023/09/24 03:27:53;;;;;;;157.47;152.10;;;;;;;9.58;100.00;102187.38;4975459;28;20439;-44
2023/09/24 03:30:23;;;;;;;149.10;144.30;;;;;;;9.59;100.00;102190.88;4990027;28;20771;-42
2023/09/24 03:32:52;;;;;;;154.33;149.60;;;;;;;9.58;100.00;102191.84;4990991;28;20453;-42
2023/09/24 03:35:23;;;;;;;150.73;145.43;;;;;;;9.58;100.00;102200.69;4981610;28;20840;-42
2023/09/24 03:37:53;;;;;;;147.23;142.50;;;;;;;9.57;100.00;102208.81;4975456;28;20479;-41
2023/09/24 03:40:22;;;;;;;146.40;141.67;;;;;;;9.56;100.00;102207.97;4989422;28;20443;-42
2023/09/24 03:42:50;;;;;;;148.13;143.47;;;;;;;9.55;100.00;102210.81;4982745;28;20463;-42
2023/09/24 03:45:19;;;;;;;148.40;143.40;;;;;;;9.54;100.00;102214.44;4973565;28;20546;-42
2023/09/24 03:47:48;;;;;;;143.60;139.00;;;;;;;9.52;100.00;102219.94;4974803;28;20435;-45
2023/09/24 03:50:18;;;;;;;142.87;138.20;;;;;;;9.50;100.00;102218.44;4966818;28;20434;-42
2023/09/24 03:52:46;;;;;;;143.30;138.97;;;;;;;9.47;100.00;102218.72;4974689;28;20459;-43
2023/09/24 03:55:15;;;;;;;145.37;140.77;;;;;;;9.46;100.00;102231.22;4966036;28;20833;-43
2023/09/24 03:57:44;;;;;;;148.53;142.93;;;;;;;9.43;100.00;102232.34;4982593;28;20482;-40
2023/09/24 04:00:14;;;;;;;148.97;143.90;;;;;;;9.42;100.00;102232.50;4977324;28;20434;-41
2023/09/24 04:02:43;;;;;;;146.33;141.70;;;;;;;9.41;100.00;102236.97;4985594;28;20545;-42
2023/09/24 04:05:14;;;;;;;145.47;140.97;;;;;;;9.41;100.00;102246.78;4973275;28;20482;-44
2023/09/24 04:07:43;;;;;;;146.87;142.07;;;;;;;9.39;100.00;102238.13;4974139;28;20435;-42
2023/09/24 04:10:14;;;;;;;146.77;142.00;;;;;;;9.38;100.00;102249.75;4973828;28;20814;-44
2023/09/24 04:12:43;;;;;;;153.60;148.60;;;;;;;9.37;100.00;102250.75;4974364;28;20459;-41
2023/09/24 04:15:11;;;;;;;149.90;145.17;;;;;;;9.35;100.00;102256.22;4973724;28;20439;-42
2023/09/24 04:17:39;;;;;;;147.33;142.67;;;;;;;9.32;100.00;102261.00;4974013;28;20511;-40
2023/09/24 04:20:10;;;;;;;145.33;140.73;;;;;;;9.31;100.00;102259.34;4973694;28;20463;-43
2023/09/24 04:22:39;;;;;;;146.67;141.40;;;;;;;9.29;100.00;102267.47;4973932;28;20458;-39
2023/09/24 04:25:08;;;;;;;146.67;141.67;;;;;;;9.29;100.00;102274.63;4981528;28;20470;-44
2023/09/24 04:27:35;;;;;;;148.20;143.30;;;;;;;9.26;100.00;102270.44;4974100;28;20467;-45
2023/09/24 04:30:05;;;;;;;150.60;145.77;;;;;;;9.25;100.00;102273.25;4973593;28;20459;-41
2023/09/24 04:32:32;;;;;;;150.27;145.50;;;;;;;9.24;100.00;102276.91;4981826;28;20819;-39
2023/09/24 04:35:00;;;;;;;145.87;140.97;;;;;;;9.21;100.00;102280.72;4982563;28;20434;-40
2023/09/24 04:37:28;;;;;;;148.27;143.10;;;;;;;9.18;100.00;102281.00;4993046;28;21375;-43
2023/09/24 04:39:58;;;;;;;148.23;143.70;;;;;;;9.16;100.00;102285.66;4984415;28;20463;-41
2023/09/24 04:42:26;;;;;;;143.70;139.10;;;;;;;9.13;100.00;102282.44;4973661;28;20513;-42
2023/09/24 04:44:54;;;;;;;148.23;143.30;;;;;;;9.10;100.00;102288.06;4972679;28;20930;-42
2023/09/24 04:47:21;;;;;;;145.00;140.10;;;;;;;9.06;100.00;102295.50;4966326;28;20435;-41
2023/09/24 04:49:49;;;;;;;144.20;139.70;;;;;;;9.03;100.00;102297.63;4973364;28;20443;-40
2023/09/24 04:52:17;;;;;;;140.47;135.77;;;;;;;8.98;100.00;102298.09;4973323;28;20451;-43
2023/09/24 04:54:44;;;;;;;147.10;142.50;;;;;;;8.93;100.00;102308.31;4973488;28;20457;-47
2023/09/24 04:57:13;;;;;;;145.90;141.00;;;;;;;8.88;100.00;102316.75;4972771;28;20529;-42
2023/09/24 04:59:41;;;;;;;155.43;150.33;;;;;;;8.85;100.00;102316.19;4973190;28;20439;-39
2023/09/24 05:02:09;;;;;;;148.17;143.43;;;;;;;8.83;100.00;102324.34;4972703;28;20491;-46
2023/09/24 05:04:36;;;;;;;150.60;145.53;;;;;;;8.80;100.00;102323.78;4973197;28;20423;-44
2023/09/24 05:07:04;;;;;;;153.17;148.37;;;;;;;8.78;100.00;102329.25;4974468;28;21052;-45
2023/09/24 05:09:32;;;;;;;147.33;142.50;;;;;;;8.79;100.00;102333.59;4979025;28;20522;-45
2023/09/24 05:11:59;;;;;;;151.20;146.40;;;;;;;8.78;100.00;102337.22;4972908;28;20486;-42
2023/09/24 05:14:29;;;;;;;142.50;138.03;;;;;;;8.76;100.00;102341.88;4977781;28;20449;-44
2023/09/24 05:16:56;;;;;;;143.07;138.67;;;;;;;8.76;100.00;102344.53;4983037;28;20451;-45
2023/09/24 05:19:24;;;;;;;144.47;139.50;;;;;;;8.76;100.00;102338.34;4972888;28;20439;-41
2023/09/24 05:21:52;;;;;;;145.03;139.57;;;;;;;8.78;100.00;102347.06;4972947;28;20505;-39
2023/09/24 05:24:19;;;;;;;141.23;136.73;;;;;;;8.79;100.00;102343.38;4973067;28;20443;-43
2023/09/24 05:26:47;;;;;;;137.43;133.23;;;;;;;8.80;100.00;102351.22;4973154;28;20545;-42
2023/09/24 05:29:15;;;;;;;131.03;126.93;;;;;;;8.82;100.00;102359.91;4980658;28;20798;-45
2023/09/24 05:31:44;;;;;;;138.03;133.30;;;;;;;8.84;100.00;102352.59;4972688;28;20470;-45
2023/09/24 05:34:11;;;;;;;133.37;129.23;;;;;;;8.90;100.00;102354.69;4981047;28;20490;-44
2023/09/24 05:36:39;;;;;;;131.40;127.20;;;;;;;9.13;100.00;102372.94;4980459;28;20545;-46
2023/09/24 05:39:08;;;;;;;125.07;121.13;;;;;;;9.61;100.00;102362.84;4979002;28;20885;-45
2023/09/24 05:41:36;;;;;;;116.87;113.10;;;;;;;10.20;100.00;102370.25;4980456;28;20438;-43
2023/09/24 05:44:05;;;;;;;110.20;106.70;;;;;;;10.81;100.00;102375.47;4990547;28;20434;-42
2023/09/24 05:46:33;;;;;;;100.43;97.20;;;;;;;11.45;100.00;102384.78;4980304;28;20458;-42
2023/09/24 05:49:04;;;;;;;93.13;90.03;;;;;;;12.03;100.00;102384.75;4981454;28;20525;-45
2023/09/24 05:51:32;;;;;;;92.57;89.37;;;;;;;12.53;100.00;102390.75;4978842;28;20497;-42
2023/09/24 05:54:00;;;;;;;91.77;88.87;;;;;;;12.98;100.00;102383.97;4972397;28;20859;-44
2023/09/24 05:56:27;;;;;;;80.90;78.00;;;;;;;13.50;100.00;102378.91;4972093;28;20459;-46
2023/09/24 05:58:56;;;;;;;67.23;64.90;;;;;;;14.05;100.00;102384.91;4972428;28;21013;-39
2023/09/24 06:01:24;;;;;;;64.53;62.33;;;;;;;14.57;100.00;102374.25;4984025;28;20430;-47
2023/09/24 06:03:52;;;;;;;56.40;54.33;;;;;;;15.04;100.00;102373.88;4976281;28;20431;-45
2023/09/24 06:06:22;;;;;;;53.40;51.40;;;;;;;15.54;100.00;102375.78;4967689;28;20473;-42
2023/09/24 06:08:50;;;;;;;49.00;47.30;;;;;;;15.95;100.00;102366.06;4976576;28;20434;-43
2023/09/24 06:11:17;;;;;;;51.40;49.70;;;;;;;16.42;100.00;102357.38;4980267;28;20434;-45
2023/09/24 06:13:45;;;;;;;49.33;47.63;;;;;;;16.77;100.00;102350.19;4978894;28;20454;-43
2023/09/24 06:16:13;;;;;;;49.10;47.40;;;;;;;17.17;100.00;102342.31;4981172;28;20457;-42
2023/09/24 06:18:41;;;;;;;55.40;53.50;;;;;;;17.37;100.00;102344.03;4986329;28;20476;-42
2023/09/24 06:21:14;;;;;;;58.87;56.47;;;;;;;17.53;100.00;102342.84;4981492;28;20434;-48
2023/09/24 06:23:43;;;;;;;60.63;58.37;;;;;;;17.58;100.00;102338.53;4978593;28;20560;-47
2023/09/24 06:26:11;;;;;;;65.83;63.73;;;;;;;17.68;100.00;102341.66;4979967;28;20458;-41
2023/09/24 06:28:39;;;;;;;72.10;69.37;;;;;;;17.76;100.00;102340.63;4972095;28;20559;-43
2023/09/24 06:31:06;;;;;;;66.33;64.03;;;;;;;17.81;100.00;102343.53;4988046;28;20465;-45
2023/09/24 06:33:34;;;;;;;65.77;63.20;;;;;;;17.87;100.00;102349.97;4975524;28;20486;-42
2023/09/24 06:36:03;;;;;;;57.60;55.50;;;;;;;17.97;100.00;102353.13;4975262;28;20462;-42
2023/09/24 06:38:32;;;;;;;65.07;62.80;;;;;;;18.13;100.00;102355.41;4976017;28;20470;-41
2023/09/24 06:41:03;;;;;;;76.23;73.40;;;;;;;18.24;100.00;102358.34;4973681;28;20452;-40
2023/09/24 06:43:31;;;;;;;88.87;86.07;;;;;;;18.37;100.00;102362.88;4965661;28;21015;-42
2023/09/24 06:46:02;;;;;;;89.10;86.20;;;;;;;18.48;100.00;102364.13;4971611;28;20846;-43
2023/09/24 06:48:30;;;;;;;88.53;85.83;;;;;;;18.55;100.00;102370.38;4972586;28;20429;-45
2023/09/24 06:51:06;;;;;;;91.10;88.27;;;;;;;18.48;100.00;102369.53;4978882;28;20438;-42
2023/09/24 06:53:34;;;;;;;90.63;87.77;;;;;;;18.45;100.00;102365.38;4972323;28;20456;-41
2023/09/24 06:56:06;;;;;;;84.43;81.73;;;;;;;18.26;100.00;102374.31;4977554;28;20487;-44
2023/09/24 06:58:35;;;;;;;86.60;83.80;;;;;;;17.89;100.00;102373.03;4963383;28;20480;-45
2023/09/24 07:01:03;;;;;;;87.20;84.37;;;;;;;17.64;100.00;102383.56;4973270;28;20498;-42
2023/09/24 07:03:31;;;;;;;84.43;81.43;;;;;;;17.61;100.00;102393.94;4978942;28;20461;-44
2023/09/24 07:06:00;;;;;;;71.43;68.53;;;;;;;17.64;100.00;102388.13;4973094;28;20462;-41
2023/09/24 07:08:28;;;;;;;56.00;53.93;;;;;;;17.63;100.00;102391.84;4973441;28;20878;-43
2023/09/24 07:11:24;;;;;;;57.20;55.17;;;;;;;17.41;100.00;102393.81;4985097;28;20437;-42
2023/09/24 07:13:53;;;;;;;49.57;47.70;;;;;;;17.25;100.00;102398.75;4969418;28;20440;-45
2023/09/24 07:16:23;;;;;;;50.57;48.83;;;;;;;17.23;100.00;102407.03;4971718;28;20586;-47
2023/09/24 07:18:52;;;;;;;52.53;50.53;;;;;;;17.23;100.00;102411.59;4969903;28;20482;-43
2023/09/24 07:21:20;;;;;;;49.20;47.40;;;;;;;17.17;100.00;102402.44;4969903;28;21376;-45
2023/09/24 07:24:02;;;;;;;47.10;45.30;;;;;;;17.07;100.00;102416.28;4969909;28;20475;-43
2023/09/24 07:26:31;;;;;;;50.03;48.40;;;;;;;17.07;100.00;102421.66;4983086;28;20544;-45
2023/09/24 07:29:00;;;;;;;42.13;40.73;;;;;;;16.95;100.00;102425.94;4975411;28;20426;-45
2023/09/24 07:31:29;;;;;;;45.93;44.23;;;;;;;16.87;100.00;102420.72;4971073;28;20435;-39
2023/09/24 07:34:00;;;;;;;38.47;37.10;;;;;;;16.83;100.00;102424.84;4970337;28;20462;-44
2023/09/24 07:36:30;;;;;;;43.20;41.53;;;;;;;16.82;100.00;102433.09;4978331;28;21012;-40
2023/09/24 07:39:08;;;;;;;37.47;36.17;;;;;;;16.85;100.00;102427.31;4971562;28;20474;-43
2023/09/24 07:41:38;;;;;;;32.10;31.00;;;;;;;16.84;100.00;102434.59;4971638;28;20798;-41
2023/09/24 07:44:06;;;;;;;35.60;34.43;;;;;;;16.96;100.00;102445.66;4970698;28;20434;-43
2023/09/24 07:46:34;;;;;;;33.83;32.60;;;;;;;16.94;100.00;102439.59;4970706;28;20470;-41
2023/09/24 07:49:05;;;;;;;35.17;33.77;;;;;;;16.99;100.00;102442.56;4971642;28;20806;-44
2023/09/24 07:51:33;;;;;;;36.93;35.63;;;;;;;17.08;100.00;102444.06;4971011;28;20438;-41
2023/09/24 07:54:02;;;;;;;37.30;36.00;;;;;;;17.13;100.00;102444.31;4974968;28;20804;-42
2023/09/24 07:56:30;;;;;;;35.73;34.53;;;;;;;17.26;100.00;102451.63;4972373;28;20808;-42
2023/09/24 07:59:00;;;;;;;33.33;32.10;;;;;;;17.26;100.00;102457.03;4973708;28;20486;-45
2023/09/24 08:01:28;;;;;;;35.40;34.30;;;;;;;17.28;100.00;102463.88;4977080;28;20439;-42
2023/09/24 08:03:56;;;;;;;34.57;33.20;;;;;;;17.23;100.00;102468.22;4975488;28;20438;-42
2023/09/24 08:06:26;;;;;;;41.80;40.40;;;;;;;17.27;100.00;102467.59;4978216;28;20465;-41
2023/09/24 08:08:54;;;;;;;39.70;38.10;;;;;;;17.28;100.00;102477.38;4976414;28;20933;-43
2023/09/24 08:11:40;;;;;;;34.77;33.27;;;;;;;17.17;100.00;102474.41;4969404;28;20463;-43
2023/09/24 08:14:09;;;;;;;34.13;32.93;;;;;;;17.14;100.00;102473.75;4974363;28;20443;-42
2023/09/24 08:16:37;;;;;;;34.63;33.33;;;;;;;17.10;100.00;102477.88;4974351;28;20984;-41
2023/09/24 08:19:04;;;;;;;30.27;29.07;;;;;;;16.96;100.00;102480.69;4972324;28;21002;-41
2023/09/24 08:21:32;;;;;;;31.57;30.10;;;;;;;16.82;100.00;102482.44;4970814;28;20431;-49
2023/09/24 08:24:00;;;;;;;34.50;33.40;;;;;;;16.80;100.00;102489.88;4971240;28;20477;-41
2023/09/24 08:26:28;;;;;;;32.23;30.70;;;;;;;16.77;100.00;102492.97;4972498;28;20462;-44
2023/09/24 08:28:55;;;;;;;32.30;31.00;;;;;;;16.77;100.00;102497.53;4970564;28;20427;-40
2023/09/24 08:31:25;;;;;;;31.20;30.20;;;;;;;16.81;100.00;102488.88;4972698;28;20440;-43
2023/09/24 08:33:53;;;;;;;28.70;27.60;;;;;;;16.84;100.00;102493.88;4970575;28;20521;-39
2023/09/24 08:36:21;;;;;;;31.47;30.27;;;;;;;16.92;100.00;102491.03;4973131;28;20862;-42
2023/09/24 08:38:49;;;;;;;29.10;27.90;;;;;;;17.01;100.00;102495.22;4969427;28;20480;-47
2023/09/24 08:41:17;;;;;;;30.90;29.80;;;;;;;17.26;100.00;102497.47;4970445;28;20440;-46
2023/09/24 08:43:45;;;;;;;28.00;27.00;;;;;;;17.48;100.00;102493.66;4970717;28;20865;-43
2023/09/24 08:46:14;;;;;;;29.30;28.10;;;;;;;17.69;100.00;102497.09;4977886;28;20533;-44
2023/09/24 08:48:43;;;;;;;24.57;23.67;;;;;;;17.93;100.00;102490.34;4983428;28;20528;-41
2023/09/24 08:51:11;;;;;;;23.97;23.00;;;;;;;18.21;100.00;102490.22;4981889;28;20444;-44
2023/09/24 08:53:40;;;;;;;24.53;23.63;;;;;;;18.44;100.00;102487.13;4976141;28;20486;-42
2023/09/24 08:56:09;;;;;;;23.90;22.93;;;;;;;18.78;100.00;102487.00;4976699;28;20464;-44
2023/09/24 08:58:40;;;;;;;23.47;22.47;;;;;;;19.15;100.00;102480.91;4974675;28;20438;-44
2023/09/24 09:01:10;;;;;;;20.90;20.20;;;;;;;19.13;100.00;102464.06;4976498;28;20524;-42
2023/09/24 09:03:39;;;;;;;21.70;21.00;;;;;;;19.36;100.00;102485.22;4975767;28;20468;-41
2023/09/24 09:06:09;;;;;;;19.73;18.87;;;;;;;19.35;100.00;102487.09;4973864;28;20457;-42
2023/09/24 09:08:50;;;;;;;20.37;19.57;;;;;;;19.40;100.00;102483.78;4975071;28;20448;-43
2023/09/24 09:11:19;;;;;;;18.20;17.40;;;;;;;19.47;100.00;102475.66;4977718;28;20438;-42
2023/09/24 09:13:49;;;;;;;19.90;18.80;;;;;;;19.55;100.00;102478.97;4974962;28;20465;-43
2023/09/24 09:16:20;;;;;;;18.87;17.97;;;;;;;19.52;100.00;102473.13;4973966;28;20584;-42
2023/09/24 09:19:00;;;;;;;20.70;19.67;;;;;;;19.49;100.00;102482.50;4973335;28;20492;-43
2023/09/24 09:21:31;;;;;;;21.63;20.83;;;;;;;19.59;100.00;102484.78;4978795;28;20980;-42
2023/09/24 09:23:58;;;;;;;19.70;18.90;;;;;;;19.62;100.00;102474.31;4963711;28;20434;-40
2023/09/24 09:26:28;;;;;;;20.60;19.63;;;;;;;19.69;100.00;102480.56;4978980;28;20469;-43
2023/09/24 09:28:55;;;;;;;19.20;18.30;;;;;;;19.55;100.00;102475.41;4976727;28;20447;-44
2023/09/24 09:31:23;;;;;;;18.60;17.67;;;;;;;19.35;100.00;102476.25;4977781;28;20884;-41
2023/09/24 09:33:51;;;;;;;17.93;17.20;;;;;;;19.64;100.00;102490.38;4966108;28;20441;-42
2023/09/24 09:36:22;;;;;;;19.23;18.33;;;;;;;19.94;100.00;102486.06;4974470;28;20503;-42
2023/09/24 09:38:52;;;;;;;18.07;16.97;;;;;;;19.93;100.00;102492.53;4971793;28;20441;-42
2023/09/24 09:41:23;;;;;;;18.03;16.87;;;;;;;20.17;100.00;102490.94;4976956;28;20485;-45
2023/09/24 09:43:52;;;;;;;13.80;13.30;;;;;;;20.10;100.00;102488.25;4978567;28;20439;-41
2023/09/24 09:46:23;;;;;;;13.97;13.37;;;;;;;20.17;100.00;102482.81;4976456;28;20545;-46
2023/09/24 09:49:04;;;;;;;14.33;13.23;;;;;;;20.22;100.00;102478.38;4977776;28;20444;-42
2023/09/24 09:51:39;;;;;;;12.57;12.00;;;;;;;20.28;100.00;102469.41;4978650;28;20501;-44
2023/09/24 09:54:11;;;;;;;14.47;13.37;;;;;;;20.34;100.00;102476.66;4979058;28;20433;-42
2023/09/24 09:56:40;;;;;;;13.07;12.07;;;;;;;20.50;100.00;102474.47;4970326;28;20517;-44
2023/09/24 09:59:09;;;;;;;12.40;11.90;;;;;;;20.75;100.00;102468.03;4969911;28;20444;-42
2023/09/24 10:01:37;;;;;;;10.43;9.80;;;;;;;20.76;100.00;102474.25;4978088;28;20485;-44
2023/09/24 10:04:08;;;;;;;9.33;8.80;;;;;;;20.84;100.00;102471.28;4975718;28;20439;-46
2023/09/24 10:06:39;;;;;;;8.83;8.50;;;;;;;20.83;100.00;102475.88;4971567;28;20466;-40
2023/09/24 10:09:39;;;;;;;10.03;9.20;;;;;;;20.68;100.00;102464.53;4982883;28;21013;-42
2023/09/24 10:12:08;;;;;;;8.50;8.20;;;;;;;20.63;100.00;102468.97;4971140;28;20454;-41
2023/09/24 10:14:38;;;;;;;8.00;7.50;;;;;;;20.47;100.00;102455.94;4975014;28;20466;-41
2023/09/24 10:17:24;;;;;;;7.10;6.80;;;;;;;20.41;100.00;102458.50;4979028;28;20490;-41
2023/09/24 10:19:55;;;;;;;7.50;6.97;;;;;;;20.30;100.00;102456.50;4973433;28;20483;-47
2023/09/24 10:22:27;;;;;;;6.90;6.60;;;;;;;20.43;100.00;102461.81;4975271;28;20532;-46
2023/09/24 10:24:56;;;;;;;7.13;6.70;;;;;;;20.36;100.00;102452.91;4985139;28;20479;-44
2023/09/24 10:27:25;;;;;;;6.83;6.53;;;;;;;20.36;100.00;102454.78;4981779;28;20445;-42
2023/09/24 10:30:07;;;;;;;6.20;5.90;;;;;;;20.40;100.00;102453.28;4973262;28;20895;-46
2023/09/24 10:32:51;;;;;;;5.40;5.10;;;;;;;20.33;97.35;102463.34;4970043;28;20461;-44
2023/09/24 10:35:20;;;;;;;5.50;5.20;;;;;;;20.27;98.98;102456.09;4974538;28;20814;-40
2023/09/24 10:38:02;;;;;;;5.93;5.63;;;;;;;20.45;100.00;102458.06;4982189;28;21187;-47
2023/09/24 10:40:33;;;;;;;6.20;5.90;;;;;;;20.67;100.00;102470.19;4971364;28;20479;-47
2023/09/24 10:43:19;;;;;;;8.30;5.90;;;;;;;21.13;100.00;102457.03;4981074;28;20456;-44
2023/09/24 10:45:48;;;;;;;5.57;5.10;;;;;;;21.21;94.72;102459.44;4976458;28;21185;-41
2023/09/24 10:48:17;;;;;;;5.97;5.57;;;;;;;21.00;100.00;102457.13;4981321;28;20860;-42
2023/09/24 10:50:45;;;;;;;6.20;5.63;;;;;;;21.06;98.33;102460.81;4970647;28;20517;-45
2023/09/24 10:53:18;;;;;;;4.87;4.53;;;;;;;21.23;100.00;102456.53;4982031;28;21028;-42
2023/09/24 10:55:47;;;;;;;5.73;5.27;;;;;;;21.31;98.17;102458.94;4976628;28;20545;-44
2023/09/24 10:58:32;;;;;;;5.13;4.70;;;;;;;21.31;100.00;102459.75;4981253;28;20526;-42
2023/09/24 11:01:00;;;;;;;7.80;5.23;;;;;;;21.02;100.00;102467.78;4970156;28;20478;-45
2023/09/24 11:03:34;;;;;;;5.70;5.40;;;;;;;21.10;100.00;102465.63;4981642;28;20469;-45
2023/09/24 11:06:04;;;;;;;6.13;5.60;;;;;;;20.88;100.00;102469.75;4979035;28;20464;-44
2023/09/24 11:08:32;;;;;;;7.67;5.00;;;;;;;20.95;100.00;102468.66;4979883;28;20795;-45